Time;durP1;ratioP1;P1;durP2;ratioP2;P2;SDS_P1;SDS_P2;PMS_P1;PMS_P2;Temp;Humidity;BMP_temperature;BMP_pressure;BME280_temperature;BME280_humidity;BME280_pressure;Samples;Min_cycle;Max_cycle;Signal;HPM_P1;HPM_P2
2021/03/29 00:01:34;;;;;;;12.78;6.72;;;;;;;4.48;90.61;100195.20;1749040;82;21047;-68
2021/03/29 00:04:02;;;;;;;5.60;3.90;;;;;;;4.46;90.52;100199.55;1749044;82;21200;-68
2021/03/29 00:06:31;;;;;;;4.97;3.45;;;;;;;4.48;90.47;100199.28;1750306;81;21182;-69
2021/03/29 00:09:01;;;;;;;6.10;3.47;;;;;;;4.41;89.94;100195.42;1750555;80;21001;-68
2021/03/29 00:11:30;;;;;;;5.15;3.87;;;;;;;4.41;89.94;100195.42;1750491;81;21013;-69
2021/03/29 00:13:58;;;;;;;6.75;3.77;;;;;;;4.40;90.09;100192.42;1750638;81;21182;-69
2021/03/29 00:16:27;;;;;;;8.70;4.25;;;;;;;4.38;90.14;100197.30;1750615;81;20937;-68
2021/03/29 00:18:54;;;;;;;8.13;4.30;;;;;;;4.37;90.08;100198.91;1750485;82;21072;-68
2021/03/29 00:21:24;;;;;;;10.00;5.22;;;;;;;4.36;90.10;100196.73;1750518;80;20938;-67
2021/03/29 00:23:53;;;;;;;9.65;4.80;;;;;;;4.37;90.07;100212.52;1750610;81;20949;-68
2021/03/29 00:26:21;;;;;;;10.28;6.00;;;;;;;4.35;90.11;100210.59;1750636;81;21143;-69
2021/03/29 00:28:50;;;;;;;12.68;6.85;;;;;;;4.35;90.13;100212.77;1750560;82;21520;-70
2021/03/29 00:31:19;;;;;;;12.88;6.45;;;;;;;4.37;90.23;100214.69;1750552;82;21155;-69
2021/03/29 00:33:47;;;;;;;12.07;6.12;;;;;;;4.37;90.14;100205.17;1750557;82;20942;-68
2021/03/29 00:36:16;;;;;;;9.95;6.67;;;;;;;4.37;89.97;100208.43;1720904;82;21596;-69
2021/03/29 00:38:45;;;;;;;10.35;6.12;;;;;;;4.36;90.12;100204.07;1779079;80;21069;-67
2021/03/29 00:41:15;;;;;;;13.62;8.20;;;;;;;4.37;90.40;100211.97;1781525;80;20955;-67
2021/03/29 00:43:45;;;;;;;11.95;6.97;;;;;;;4.34;90.05;100215.20;1781452;80;20962;-66
2021/03/29 00:46:15;;;;;;;5.78;4.10;;;;;;;4.31;90.10;100211.64;1781534;80;20947;-67
2021/03/29 00:48:45;;;;;;;8.80;5.08;;;;;;;4.29;90.25;100209.19;1781410;80;21025;-67
2021/03/29 00:51:30;;;;;;;6.85;4.80;;;;;;;4.30;90.29;100217.62;1781588;80;21473;-67
2021/03/29 00:54:05;;;;;;;16.95;7.47;;;;;;;4.28;90.24;100214.88;1781090;80;21136;-68
2021/03/29 00:56:34;;;;;;;26.45;10.65;;;;;;;4.28;90.24;100214.88;1781454;80;20906;-67
2021/03/29 00:59:03;;;;;;;10.63;5.28;;;;;;;4.27;90.22;100209.98;1751709;80;22329;-68
2021/03/29 01:01:42;;;;;;;10.63;4.80;;;;;;;4.25;90.30;100222.19;1781442;80;21022;-68
2021/03/29 01:04:10;;;;;;;8.18;4.03;;;;;;;4.25;90.35;100220.83;1781558;80;21128;-67
2021/03/29 01:06:41;;;;;;;7.50;4.42;;;;;;;4.26;90.48;100227.36;1751558;80;21220;-67
2021/03/29 01:09:23;;;;;;;7.10;4.37;;;;;;;4.28;90.49;100213.52;1781474;80;21549;-67
2021/03/29 01:12:01;;;;;;;7.70;3.67;;;;;;;4.30;90.38;100221.70;1781427;80;21097;-67
2021/03/29 01:14:38;;;;;;;7.92;4.35;;;;;;;4.31;90.29;100221.16;1781497;80;21029;-66
2021/03/29 01:17:21;;;;;;;9.68;4.87;;;;;;;4.30;90.25;100231.75;1789958;79;21155;-66
2021/03/29 01:20:06;;;;;;;9.63;5.17;;;;;;;4.26;90.39;100230.08;1781627;80;21146;-66
2021/03/29 01:22:40;;;;;;;10.18;4.58;;;;;;;4.24;90.53;100231.42;1781548;80;21073;-66
2021/03/29 01:25:16;;;;;;;6.12;4.50;;;;;;;4.24;90.53;100231.42;1752121;80;21034;-68
2021/03/29 01:27:57;;;;;;;7.05;4.50;;;;;;;4.27;90.50;100228.19;1789727;80;21081;-67
2021/03/29 01:30:25;;;;;;;7.10;4.62;;;;;;;4.27;90.41;100224.92;1781525;80;20942;-67
2021/03/29 01:32:53;;;;;;;10.13;5.35;;;;;;;4.27;90.49;100231.72;1751185;80;21396;-67
2021/03/29 01:35:26;;;;;;;8.05;5.42;;;;;;;4.27;90.47;100247.21;1781463;79;21565;-67
2021/03/29 01:37:56;;;;;;;17.55;8.95;;;;;;;4.27;90.54;100245.85;1781445;80;20919;-67
2021/03/29 01:40:23;;;;;;;9.48;6.12;;;;;;;4.27;90.57;100245.85;1781437;80;20927;-66
2021/03/29 01:42:51;;;;;;;6.90;4.90;;;;;;;4.28;90.62;100248.85;1781418;80;21061;-67
2021/03/29 01:45:19;;;;;;;8.63;4.33;;;;;;;4.26;90.62;100255.91;1781470;80;22052;-67
2021/03/29 01:47:47;;;;;;;7.95;5.03;;;;;;;4.27;90.68;100255.37;1781449;80;20950;-67
2021/03/29 01:50:19;;;;;;;6.90;4.45;;;;;;;4.27;90.67;100245.85;1781362;79;21093;-67
2021/03/29 01:52:46;;;;;;;7.87;4.27;;;;;;;4.27;90.67;100249.39;1781705;80;20939;-67
2021/03/29 01:55:14;;;;;;;5.00;3.47;;;;;;;4.28;90.66;100252.92;1781560;80;21071;-67
2021/03/29 01:57:42;;;;;;;6.92;4.55;;;;;;;4.28;90.69;100251.56;1751265;80;21387;-67
2021/03/29 02:00:16;;;;;;;4.90;3.80;;;;;;;4.28;90.69;100265.16;1781413;80;20995;-67
2021/03/29 02:02:44;;;;;;;7.08;4.35;;;;;;;4.28;90.64;100276.03;1781484;80;20907;-67
2021/03/29 02:05:13;;;;;;;6.60;4.22;;;;;;;4.30;90.63;100263.00;1781436;80;21144;-67
2021/03/29 02:07:41;;;;;;;5.95;4.00;;;;;;;4.30;90.36;100265.72;1781523;80;21143;-67
2021/03/29 02:10:23;;;;;;;9.75;4.83;;;;;;;4.30;90.36;100265.72;1781312;80;21419;-67
2021/03/29 02:12:51;;;;;;;7.05;4.20;;;;;;;4.30;90.38;100268.44;1751946;80;21587;-67
2021/03/29 02:15:25;;;;;;;6.30;4.15;;;;;;;4.30;90.43;100275.23;1778651;80;20998;-67
2021/03/29 02:17:56;;;;;;;5.40;3.52;;;;;;;4.29;90.39;100278.50;1778732;80;21065;-67
2021/03/29 02:20:28;;;;;;;5.95;4.00;;;;;;;4.28;90.42;100265.16;1778850;80;20990;-67
2021/03/29 02:22:56;;;;;;;4.90;3.35;;;;;;;4.26;90.35;100274.11;1778793;80;21335;-67
2021/03/29 02:25:24;;;;;;;5.37;3.75;;;;;;;4.26;90.44;100271.39;1778658;80;20962;-67
2021/03/29 02:27:52;;;;;;;6.92;3.72;;;;;;;4.25;90.48;100270.57;1778721;80;20994;-67
2021/03/29 02:30:24;;;;;;;7.97;3.83;;;;;;;4.23;90.36;100275.98;1778728;80;20998;-67
2021/03/29 02:32:52;;;;;;;5.62;3.95;;;;;;;4.20;90.40;100273.23;1779067;80;21144;-67
2021/03/29 02:35:21;;;;;;;7.97;3.98;;;;;;;4.20;90.50;100269.70;1778854;80;23525;-67
2021/03/29 02:37:52;;;;;;;6.60;3.90;;;;;;;4.19;90.46;100270.77;1762348;80;21047;-67
2021/03/29 02:40:20;;;;;;;6.95;4.20;;;;;;;4.17;90.50;100281.08;1748594;81;20996;-67
2021/03/29 02:42:52;;;;;;;6.60;4.50;;;;;;;4.14;90.72;100274.80;1748482;82;21170;-67
2021/03/29 02:45:20;;;;;;;5.87;3.83;;;;;;;4.14;90.70;100275.62;1748602;82;21004;-66
2021/03/29 02:47:47;;;;;;;9.05;4.33;;;;;;;4.14;90.76;100272.08;1748648;82;21210;-67
2021/03/29 02:50:18;;;;;;;7.30;5.10;;;;;;;4.13;90.70;100277.23;1748419;82;21102;-67
2021/03/29 02:52:48;;;;;;;10.25;5.15;;;;;;;4.13;90.70;100290.28;1748524;82;20948;-67
2021/03/29 02:55:17;;;;;;;8.75;6.05;;;;;;;4.13;90.61;100298.43;1748892;82;21466;-67
2021/03/29 02:57:47;;;;;;;10.68;6.80;;;;;;;4.14;90.70;100294.64;1748631;81;21079;-67
2021/03/29 03:00:19;;;;;;;16.50;8.65;;;;;;;4.16;90.58;100302.53;1748558;82;21198;-67
2021/03/29 03:02:47;;;;;;;9.60;6.17;;;;;;;4.15;90.35;100307.69;1747095;80;21499;-67
2021/03/29 03:05:18;;;;;;;11.93;6.10;;;;;;;4.12;90.36;100305.48;1746565;82;20954;-67
2021/03/29 03:07:45;;;;;;;13.90;7.47;;;;;;;4.12;90.43;100304.12;1719618;82;20898;-67
2021/03/29 03:10:15;;;;;;;11.90;6.87;;;;;;;4.11;90.43;100297.86;1746331;80;21472;-67
2021/03/29 03:12:47;;;;;;;9.90;5.83;;;;;;;4.13;90.44;100304.41;1746423;82;21205;-67
2021/03/29 03:15:26;;;;;;;8.75;4.87;;;;;;;4.14;90.45;100315.55;1746519;82;21514;-67
2021/03/29 03:17:58;;;;;;;6.15;4.33;;;;;;;4.13;90.15;100310.66;1746448;82;20965;-67
2021/03/29 03:20:29;;;;;;;6.90;4.42;;;;;;;4.12;90.03;100323.96;1746373;82;21504;-67
2021/03/29 03:23:10;;;;;;;6.75;4.55;;;;;;;4.09;90.14;100320.39;1746447;82;21077;-67
2021/03/29 03:25:44;;;;;;;13.78;7.45;;;;;;;4.09;90.19;100325.83;1746425;82;21491;-67
2021/03/29 03:28:14;;;;;;;11.18;5.40;;;;;;;4.12;90.21;100325.86;1718957;82;21152;-67
2021/03/29 03:30:48;;;;;;;7.50;3.92;;;;;;;4.13;90.02;100323.42;1719257;82;21139;-67
2021/03/29 03:33:18;;;;;;;8.63;4.53;;;;;;;4.12;89.97;100323.14;1746405;80;21053;-67
2021/03/29 03:35:47;;;;;;;8.35;4.45;;;;;;;4.09;89.87;100321.75;1746678;82;21521;-67
2021/03/29 03:38:20;;;;;;;11.15;4.65;;;;;;;4.10;89.98;100331.55;1770046;80;21368;-67
2021/03/29 03:40:50;;;;;;;;;;;;;;;4.09;89.91;100330.44;1739641;82;21084;-67
2021/03/29 03:43:19;;;;;;;12.98;6.22;;;;;;;4.07;90.13;100335.31;1757373;81;20515;-67
2021/03/29 03:45:52;;;;;;;13.18;6.47;;;;;;;4.07;90.13;100335.31;1781566;80;21010;-67
2021/03/29 03:48:19;;;;;;;7.53;4.80;;;;;;;4.03;90.08;100330.12;1781749;80;26523;-67
2021/03/29 03:50:48;;;;;;;11.18;5.25;;;;;;;4.01;90.12;100328.20;1781442;80;22203;-67
2021/03/29 03:53:18;;;;;;;11.40;5.03;;;;;;;4.00;90.18;100326.56;1767803;80;21067;-67
2021/03/29 03:55:52;;;;;;;9.53;4.50;;;;;;;4.00;90.26;100323.84;1750663;82;20957;-67
2021/03/29 03:58:19;;;;;;;13.43;7.58;;;;;;;4.01;90.25;100328.20;1750136;82;21169;-67
2021/03/29 04:00:47;;;;;;;18.55;8.90;;;;;;;4.03;90.19;100334.20;1750506;80;21060;-68
2021/03/29 04:03:15;;;;;;;16.77;8.20;;;;;;;4.06;90.18;100340.45;1750660;82;21205;-67
2021/03/29 04:05:43;;;;;;;16.60;7.42;;;;;;;4.06;90.04;100335.84;1757123;81;21517;-67
2021/03/29 04:08:14;;;;;;;12.93;6.45;;;;;;;4.07;89.97;100342.10;1719663;81;21505;-67
2021/03/29 04:10:46;;;;;;;25.75;10.32;;;;;;;4.06;89.88;100341.81;1750204;81;21155;-67
2021/03/29 04:13:30;;;;;;;24.50;11.75;;;;;;;4.05;89.90;100336.09;1731558;81;21139;-67
2021/03/29 04:16:03;;;;;;;14.40;7.75;;;;;;;4.05;89.93;100338.81;1745843;80;21610;-67
2021/03/29 04:18:31;;;;;;;11.97;5.62;;;;;;;4.06;89.94;100348.61;1745176;81;21000;-67
2021/03/29 04:21:03;;;;;;;10.00;6.12;;;;;;;4.08;89.93;100354.08;1753475;81;20961;-67
2021/03/29 04:23:30;;;;;;;14.98;8.63;;;;;;;4.09;89.85;100353.54;1753543;80;20953;-67
2021/03/29 04:25:58;;;;;;;17.60;9.53;;;;;;;4.09;89.90;100348.92;1753572;81;21147;-67
2021/03/29 04:28:25;;;;;;;20.10;9.45;;;;;;;4.10;89.72;100349.74;1753542;81;21407;-67
2021/03/29 04:30:53;;;;;;;18.98;9.33;;;;;;;4.09;89.67;100354.36;1753396;81;20965;-67
2021/03/29 04:33:22;;;;;;;23.55;12.15;;;;;;;4.09;89.72;100358.97;1753491;81;21001;-67
2021/03/29 04:35:51;;;;;;;17.65;10.30;;;;;;;4.11;89.76;100363.08;1753526;81;21597;-66
2021/03/29 04:38:19;;;;;;;14.63;7.85;;;;;;;4.13;89.84;100365.01;1736140;81;21147;-67
2021/03/29 04:40:47;;;;;;;14.28;7.17;;;;;;;4.14;89.72;100364.47;1735622;81;21390;-68
2021/03/29 04:43:15;;;;;;;10.60;5.83;;;;;;;4.14;89.66;100368.55;1724768;81;20941;-67
2021/03/29 04:45:43;;;;;;;12.65;6.85;;;;;;;4.13;89.73;100370.44;1734198;81;21219;-67
2021/03/29 04:48:11;;;;;;;15.63;8.68;;;;;;;4.14;89.66;100372.08;1730723;81;21158;-69
2021/03/29 04:50:40;;;;;;;17.15;9.38;;;;;;;4.14;89.71;100363.11;1703131;81;21120;-67
2021/03/29 04:53:08;;;;;;;30.12;15.45;;;;;;;4.15;89.79;100364.22;1735656;81;21309;-67
2021/03/29 04:55:38;;;;;;;20.75;11.70;;;;;;;4.18;89.76;100370.50;1731345;81;20965;-67
2021/03/29 04:58:06;;;;;;;12.73;7.65;;;;;;;4.22;89.70;100372.17;1734136;81;21548;-67
2021/03/29 05:00:34;;;;;;;9.63;6.00;;;;;;;4.25;89.68;100368.95;1717358;81;21127;-67
2021/03/29 05:03:02;;;;;;;20.35;10.32;;;;;;;4.26;89.42;100370.59;1710097;83;21143;-69
2021/03/29 05:05:30;;;;;;;27.15;13.62;;;;;;;4.28;89.41;100380.67;1710174;82;21401;-68
2021/03/29 05:07:57;;;;;;;20.52;10.85;;;;;;;4.29;89.13;100389.12;1710114;83;21130;-69
2021/03/29 05:10:25;;;;;;;13.62;7.47;;;;;;;4.28;89.19;100397.80;1746228;81;21005;-68
2021/03/29 05:12:54;;;;;;;15.60;8.73;;;;;;;4.30;89.27;100404.34;1756763;81;21064;-67
2021/03/29 05:15:26;;;;;;;16.30;9.35;;;;;;;4.33;89.16;100396.22;1758695;81;21147;-67
2021/03/29 05:17:55;;;;;;;19.47;11.33;;;;;;;4.33;89.16;100396.22;1758278;81;21432;-67
2021/03/29 05:20:24;;;;;;;19.00;10.58;;;;;;;4.34;89.13;100408.74;1757394;81;21265;-67
2021/03/29 05:22:52;;;;;;;17.50;8.93;;;;;;;4.34;89.15;100406.84;1757543;81;21536;-68
2021/03/29 05:25:20;;;;;;;20.12;10.80;;;;;;;4.35;89.14;100407.13;1757426;81;21161;-68
2021/03/29 05:27:48;;;;;;;25.95;12.85;;;;;;;4.37;89.05;100406.34;1757424;81;21191;-68
2021/03/29 05:30:17;;;;;;;26.42;12.78;;;;;;;4.39;88.97;100410.98;1757416;81;21166;-68
2021/03/29 05:32:44;;;;;;;17.48;9.88;;;;;;;4.40;89.05;100418.06;1757442;81;21626;-70
2021/03/29 05:35:12;;;;;;;24.18;12.23;;;;;;;4.44;89.07;100411.58;1756999;81;21135;-68
2021/03/29 05:37:40;;;;;;;40.83;18.62;;;;;;;4.46;88.90;100414.88;1758178;81;21468;-69
2021/03/29 05:40:10;;;;;;;51.35;25.02;;;;;;;4.50;88.97;100420.08;1749131;81;21081;-68
2021/03/29 05:42:38;;;;;;;25.25;14.05;;;;;;;4.53;88.86;100421.75;1739464;81;21200;-67
2021/03/29 05:45:08;;;;;;;15.65;9.05;;;;;;;4.58;88.84;100416.37;1741229;81;21028;-68
2021/03/29 05:47:38;;;;;;;10.08;7.12;;;;;;;4.62;88.78;100417.48;1743092;81;20976;-68
2021/03/29 05:50:14;;;;;;;14.95;8.53;;;;;;;4.69;88.66;100421.89;1741112;81;20982;-68
2021/03/29 05:52:42;;;;;;;17.62;9.48;;;;;;;4.74;88.36;100421.95;1740820;81;21160;-68
2021/03/29 05:55:22;;;;;;;17.67;10.45;;;;;;;4.77;88.01;100421.44;1740265;81;22803;-67
2021/03/29 06:00:37;;;;;;;29.70;14.07;;;;;;;4.81;87.56;100418.48;1739454;81;21096;-68
2021/03/29 06:06:20;;;;;;;17.20;9.00;;;;;;;4.94;87.77;100431.15;1863374;76;22680;-68
2021/03/29 06:08:50;;;;;;;15.78;8.33;;;;;;;4.93;87.10;100436.30;1829242;78;20925;-68
2021/03/29 06:11:32;;;;;;;14.00;8.35;;;;;;;4.95;87.08;100433.33;1758300;81;21361;-68
2021/03/29 06:14:20;;;;;;;26.55;13.40;;;;;;;4.97;87.12;100431.17;1783141;79;21081;-69
2021/03/29 06:16:56;;;;;;;39.75;19.50;;;;;;;5.03;86.88;100438.31;1762521;80;21073;-69
2021/03/29 06:20:00;;;;;;;22.95;11.35;;;;;;;5.05;86.73;100449.76;1769319;80;21568;-69
2021/03/29 06:22:37;;;;;;;10.75;7.10;;;;;;;5.08;86.48;100451.97;1773699;80;21021;-68
2021/03/29 06:25:21;;;;;;;14.03;7.20;;;;;;;5.09;86.28;100454.15;1771339;80;21355;-68
2021/03/29 06:27:55;;;;;;;25.90;11.73;;;;;;;5.09;86.30;100453.61;1772158;80;21008;-68
2021/03/29 06:30:33;;;;;;;24.50;11.48;;;;;;;5.10;86.16;100462.06;1780420;80;21556;-69
2021/03/29 06:33:08;;;;;;;13.58;8.15;;;;;;;5.08;86.14;100457.95;1759972;80;21017;-69
2021/03/29 06:35:44;;;;;;;16.02;7.97;;;;;;;5.18;86.07;100463.49;1760075;80;21005;-70
2021/03/29 06:38:25;;;;;;;14.28;8.48;;;;;;;5.18;86.07;100463.49;1756162;80;21204;-69
2021/03/29 06:41:03;;;;;;;19.80;8.95;;;;;;;5.22;86.00;100462.69;1756500;81;21107;-69
2021/03/29 06:43:41;;;;;;;12.88;7.80;;;;;;;5.27;85.84;100458.66;1756620;81;20921;-70
2021/03/29 06:46:21;;;;;;;14.45;8.50;;;;;;;5.30;85.56;100458.14;1756556;81;20929;-70
2021/03/29 06:48:52;;;;;;;15.88;8.35;;;;;;;5.35;85.54;100463.34;1755366;81;21409;-71
2021/03/29 06:51:24;;;;;;;21.25;11.65;;;;;;;5.39;85.40;100463.94;1740861;82;21022;-68
2021/03/29 06:53:56;;;;;;;27.13;12.33;;;;;;;5.46;85.14;100475.97;1731566;82;21036;-70
2021/03/29 06:56:39;;;;;;;26.53;12.90;;;;;;;5.49;85.26;100468.11;1732775;82;21579;-69
2021/03/29 06:59:16;;;;;;;17.95;10.32;;;;;;;5.56;85.07;100479.61;1732422;82;21001;-72
2021/03/29 07:01:54;;;;;;;20.02;10.13;;;;;;;5.62;84.67;100475.02;1732472;82;21167;-69
2021/03/29 07:04:25;;;;;;;22.98;10.95;;;;;;;5.69;84.87;100477.52;1732276;82;21360;-69
2021/03/29 07:06:53;;;;;;;17.20;9.58;;;;;;;5.86;84.40;100480.36;1732379;82;21032;-69
2021/03/29 07:09:22;;;;;;;22.35;9.30;;;;;;;5.88;83.79;100474.64;1732400;82;20941;-70
2021/03/29 07:11:52;;;;;;;19.55;10.63;;;;;;;5.88;83.79;100474.64;1733252;79;20954;-68
2021/03/29 07:14:21;;;;;;;15.50;8.98;;;;;;;5.95;84.09;100484.80;1770918;79;21071;-68
2021/03/29 07:16:50;;;;;;;21.73;10.70;;;;;;;6.00;84.19;100483.48;1755786;80;20937;-72
2021/03/29 07:19:23;;;;;;;18.75;11.05;;;;;;;6.05;83.41;100481.33;1747863;82;20957;-70
2021/03/29 07:21:51;;;;;;;25.02;10.98;;;;;;;6.06;82.90;100487.87;1748012;82;20910;-69
2021/03/29 07:24:20;;;;;;;22.02;10.72;;;;;;;6.06;82.84;100500.14;1747887;82;20930;-69
2021/03/29 07:26:59;;;;;;;23.25;11.80;;;;;;;6.07;83.02;100500.97;1747962;82;21114;-70
2021/03/29 07:29:31;;;;;;;18.75;10.60;;;;;;;6.12;83.46;100498.27;1748024;82;21198;-69
2021/03/29 07:32:03;;;;;;;17.37;9.18;;;;;;;6.12;83.46;100498.27;1759496;80;21576;-71
2021/03/29 07:34:49;;;;;;;23.10;11.35;;;;;;;6.27;83.35;100501.09;1888177;76;22656;-67
2021/03/29 07:37:55;;;;;;;20.02;9.63;;;;;;;6.32;83.43;100509.31;1775105;80;21581;-69
2021/03/29 07:40:36;;;;;;;29.30;13.38;;;;;;;6.42;82.93;100510.70;1849642;77;21332;-69
2021/03/29 07:43:11;;;;;;;24.98;13.10;;;;;;;6.57;82.20;100525.78;1849365;77;20993;-71
2021/03/29 07:45:49;;;;;;;24.77;12.10;;;;;;;6.57;82.20;100525.78;1849632;77;21064;-65
2021/03/29 07:48:39;;;;;;;26.15;13.70;;;;;;;6.57;81.72;100514.87;1778241;80;20947;-67
2021/03/29 07:51:13;;;;;;;25.25;13.72;;;;;;;6.60;81.18;100512.16;1816178;79;21033;-66
2021/03/29 07:53:50;;;;;;;25.92;12.90;;;;;;;6.61;81.15;100524.70;1816241;79;21328;-68
2021/03/29 07:56:42;;;;;;;21.62;11.35;;;;;;;6.65;80.71;100526.36;1816329;78;21508;-68
2021/03/29 07:59:09;;;;;;;32.80;16.75;;;;;;;6.63;80.33;100531.55;1816305;79;20969;-66
2021/03/29 08:02:00;;;;;;;50.00;19.67;;;;;;;6.63;80.26;100524.72;1816455;79;22223;-67
2021/03/29 08:05:05;;;;;;;28.95;14.43;;;;;;;6.65;80.43;100534.55;1816301;79;21048;-66
2021/03/29 08:07:44;;;;;;;28.98;12.95;;;;;;;6.67;80.44;100537.28;1784064;79;21357;-66
2021/03/29 08:10:15;;;;;;;24.98;13.13;;;;;;;6.73;80.02;100529.41;1793840;79;21519;-64
2021/03/29 08:13:02;;;;;;;23.15;13.30;;;;;;;6.80;80.36;100537.34;1793724;79;21068;-65
2021/03/29 08:16:08;;;;;;;29.45;16.23;;;;;;;6.88;80.11;100542.30;1794670;79;21605;-67
2021/03/29 08:22:03;;;;;;;34.15;18.50;;;;;;;7.03;80.05;100549.15;1789721;80;21125;-67
2021/03/29 08:24:38;;;;;;;24.87;13.80;;;;;;;7.11;79.99;100552.72;1788897;79;21005;-68
2021/03/29 08:27:19;;;;;;;31.90;14.85;;;;;;;7.20;79.54;100551.12;1789703;80;21642;-68
2021/03/29 08:29:48;;;;;;;38.95;15.98;;;;;;;7.24;78.96;100547.30;1788974;80;20942;-68
2021/03/29 08:32:29;;;;;;;29.90;15.43;;;;;;;7.27;78.86;100550.86;1789846;80;20918;-68
2021/03/29 08:35:07;;;;;;;42.50;16.23;;;;;;;7.29;78.99;100554.97;1776130;80;22393;-68
2021/03/29 08:37:44;;;;;;;37.15;19.73;;;;;;;7.34;78.87;100555.52;1788017;80;21607;-68
2021/03/29 08:40:23;;;;;;;38.98;19.85;;;;;;;7.39;78.36;100556.08;1789078;79;21009;-69
2021/03/29 08:42:56;;;;;;;26.37;16.12;;;;;;;7.43;78.06;100558.00;1789070;80;21037;-69
2021/03/29 08:45:25;;;;;;;;;;;;;;;7.44;77.79;100556.09;1795034;78;21207;-69
2021/03/29 08:47:56;;;;;;;38.45;21.62;;;;;;;7.46;77.56;100563.47;1790155;78;21204;-70
2021/03/29 08:50:28;;;;;;;39.63;18.95;;;;;;;7.46;77.71;100564.84;1786991;78;20982;-69
2021/03/29 08:53:01;;;;;;;36.67;19.57;;;;;;;7.51;77.44;100563.48;1790386;78;20883;-72
2021/03/29 08:55:33;;;;;;;36.77;20.17;;;;;;;7.59;77.30;100567.84;1797213;78;21053;-74
2021/03/29 08:58:01;;;;;;;37.78;21.10;;;;;;;7.64;77.06;100573.86;1786980;80;21595;-68
2021/03/29 09:00:39;;;;;;;43.05;22.35;;;;;;;7.65;76.83;100569.21;1817839;78;21453;-69
2021/03/29 09:03:21;;;;;;;45.15;21.50;;;;;;;7.72;77.01;100583.44;1789487;78;21171;-70
2021/03/29 09:05:49;;;;;;;42.95;21.25;;;;;;;7.80;76.57;100573.33;1796639;78;21622;-69
2021/03/29 09:08:18;;;;;;;34.35;18.30;;;;;;;7.82;75.72;100578.80;1786013;80;21180;-69
2021/03/29 09:10:48;;;;;;;39.58;20.55;;;;;;;7.84;75.48;100572.52;1790936;78;21195;-68
2021/03/29 09:13:18;;;;;;;40.05;22.00;;;;;;;7.82;75.69;100581.53;1789261;79;21356;-68
2021/03/29 09:15:51;;;;;;;47.88;25.37;;;;;;;7.81;76.03;100571.69;1756955;78;21084;-67
2021/03/29 09:18:24;;;;;;;57.70;29.55;;;;;;;7.86;76.11;100584.00;1795730;78;21022;-67
2021/03/29 09:20:53;;;;;;;45.52;24.37;;;;;;;7.87;75.60;100581.54;1787565;80;21122;-68
2021/03/29 09:23:30;;;;;;;35.95;19.10;;;;;;;7.91;75.79;100586.73;1795549;78;21151;-67
2021/03/29 09:25:53;;;;;;;30.17;17.98;;;;;;;7.94;75.59;100587.56;1794949;78;21261;-67
2021/03/29 09:31:04;;;;;;;36.70;19.02;;;;;;;7.94;75.37;100597.67;1784277;79;20924;-68
2021/03/29 09:33:32;;;;;;;34.18;18.98;;;;;;;7.95;75.29;100589.20;1785804;80;21577;-67
2021/03/29 09:36:09;;;;;;;29.70;16.60;;;;;;;7.99;75.08;100594.13;1783841;80;21051;-67
2021/03/29 09:38:45;;;;;;;46.88;22.70;;;;;;;8.00;74.50;100594.40;1792458;79;21148;-67
2021/03/29 09:41:19;;;;;;;47.08;24.80;;;;;;;7.99;74.51;100596.86;1777563;80;21132;-67
2021/03/29 09:43:51;;;;;;;40.20;21.97;;;;;;;7.99;74.55;100603.14;1778046;80;20942;-66
2021/03/29 09:46:28;;;;;;;44.35;24.35;;;;;;;7.99;74.31;100599.05;1794920;79;21584;-68
2021/03/29 09:49:16;;;;;;;64.37;31.80;;;;;;;7.97;74.17;100605.88;1793397;79;20934;-70
2021/03/29 09:51:47;;;;;;;42.10;20.85;;;;;;;7.96;74.47;100610.53;1805529;79;22128;-69
2021/03/29 09:54:27;;;;;;;38.15;21.23;;;;;;;7.97;74.10;100601.78;1805682;79;21013;-69
2021/03/29 09:56:57;;;;;;;36.73;19.27;;;;;;;7.97;73.87;100615.45;1767856;80;21544;-67
2021/03/29 09:59:29;;;;;;;36.13;21.05;;;;;;;7.97;74.27;100611.34;1788931;80;20981;-67
2021/03/29 10:01:58;;;;;;;53.70;28.05;;;;;;;8.02;74.67;100614.09;1789257;80;20915;-67
2021/03/29 10:04:25;;;;;;;40.25;22.73;;;;;;;8.11;73.98;100618.70;1789161;80;22263;-68
2021/03/29 10:06:56;;;;;;;36.10;20.95;;;;;;;8.16;73.28;100616.52;1804564;79;20977;-68
2021/03/29 10:09:36;;;;;;;31.97;18.40;;;;;;;8.19;73.39;100622.27;1815557;79;21057;-68
2021/03/29 10:12:05;;;;;;;39.50;22.75;;;;;;;8.23;72.62;100618.44;1815365;79;21152;-66
2021/03/29 10:14:39;;;;;;;39.92;23.45;;;;;;;8.22;72.35;100620.35;1815295;78;21119;-67
2021/03/29 10:17:16;;;;;;;42.13;22.20;;;;;;;8.22;72.30;100627.73;1815189;79;21167;-67
2021/03/29 10:19:47;;;;;;;35.48;20.77;;;;;;;8.23;72.31;100630.75;1795123;79;21155;-67
2021/03/29 10:22:18;;;;;;;41.60;21.70;;;;;;;8.23;72.82;100630.75;1786087;79;21009;-66
2021/03/29 10:25:16;;;;;;;35.10;21.80;;;;;;;8.22;72.55;100638.68;1783935;80;20942;-67
2021/03/29 10:27:49;;;;;;;33.50;20.15;;;;;;;8.18;72.50;100641.69;1783777;80;20958;-67
2021/03/29 10:30:28;;;;;;;41.35;21.62;;;;;;;8.12;72.94;100634.02;1783893;80;21185;-69
2021/03/29 10:32:59;;;;;;;84.52;37.88;;;;;;;8.10;73.08;100640.31;1783697;80;21076;-68
2021/03/29 10:35:29;;;;;;;68.57;29.85;;;;;;;8.02;73.45;100629.95;1783654;80;21052;-67
2021/03/29 10:37:57;;;;;;;51.98;25.92;;;;;;;7.97;73.69;100634.59;1783610;80;21501;-68
2021/03/29 10:40:27;;;;;;;40.83;21.60;;;;;;;7.94;73.93;100635.41;1783802;80;20970;-67
2021/03/29 10:42:55;;;;;;;31.82;20.23;;;;;;;7.95;74.24;100634.31;1783769;80;21258;-69
2021/03/29 10:45:22;;;;;;;32.73;19.67;;;;;;;7.98;74.32;100635.69;1789228;79;21628;-69
2021/03/29 10:47:50;;;;;;;42.85;23.10;;;;;;;7.99;74.34;100635.95;1788051;79;21070;-68
2021/03/29 10:50:22;;;;;;;31.17;18.92;;;;;;;8.00;74.16;100641.70;1783678;79;21773;-68
2021/03/29 10:52:50;;;;;;;35.65;22.17;;;;;;;7.98;73.82;100643.06;1787550;79;21484;-68
2021/03/29 10:55:20;;;;;;;34.73;21.40;;;;;;;7.91;74.11;100640.59;1791615;79;21360;-67
2021/03/29 10:57:48;;;;;;;34.13;21.65;;;;;;;7.89;74.25;100644.97;1788247;79;20948;-68
2021/03/29 11:00:19;;;;;;;38.35;23.38;;;;;;;7.94;74.64;100640.87;1783748;80;20900;-67
2021/03/29 11:02:47;;;;;;;37.08;23.05;;;;;;;7.96;74.06;100641.97;1783561;80;20931;-68
2021/03/29 11:05:16;;;;;;;39.70;23.55;;;;;;;7.94;74.36;100645.52;1788643;79;20991;-67
2021/03/29 11:07:45;;;;;;;38.40;21.87;;;;;;;7.95;74.60;100644.43;1797774;79;21139;-68
2021/03/29 11:10:16;;;;;;;39.25;24.20;;;;;;;8.00;75.06;100648.54;1794391;79;21171;-66
2021/03/29 11:12:44;;;;;;;44.98;24.20;;;;;;;8.12;74.47;100648.25;1789272;79;21101;-67
2021/03/29 11:15:14;;;;;;;34.75;21.40;;;;;;;8.22;74.28;100652.36;1793079;79;21040;-66
2021/03/29 11:17:42;;;;;;;35.95;20.72;;;;;;;8.34;73.92;100654.30;1764218;79;21113;-66
2021/03/29 11:20:33;;;;;;;50.17;24.92;;;;;;;8.41;73.34;100662.24;1791463;79;22063;-70
2021/03/29 11:23:00;;;;;;;75.03;25.40;;;;;;;8.41;72.90;100661.69;1716213;83;21587;-70
2021/03/29 11:25:28;;;;;;;40.12;23.73;;;;;;;8.36;72.55;100660.87;1717787;83;21164;-69
2021/03/29 11:27:55;;;;;;;38.08;22.40;;;;;;;8.27;72.55;100660.56;1718009;83;21179;-69
2021/03/29 11:30:23;;;;;;;75.87;27.30;;;;;;;8.24;72.50;100664.67;1704950;83;21638;-67
2021/03/29 11:32:51;;;;;;;70.83;27.75;;;;;;;8.19;72.66;100661.93;1716550;83;22340;-67
2021/03/29 11:35:18;;;;;;;44.83;25.10;;;;;;;8.16;73.21;100667.13;1716506;83;21100;-68
2021/03/29 11:37:46;;;;;;;56.63;24.50;;;;;;;8.14;73.35;100667.94;1717900;83;21156;-66
2021/03/29 11:40:15;;;;;;;37.23;22.55;;;;;;;8.12;73.27;100661.92;1717939;83;21172;-68
2021/03/29 11:42:43;;;;;;;47.20;24.63;;;;;;;8.09;73.47;100670.13;1705287;83;21626;-68
2021/03/29 11:45:13;;;;;;;65.12;27.10;;;;;;;8.08;73.65;100664.41;1717602;83;22349;-66
2021/03/29 11:47:42;;;;;;;61.35;24.30;;;;;;;8.09;73.54;100670.13;1716504;83;21143;-67
2021/03/29 11:52:51;;;;;;;42.27;23.42;;;;;;;8.08;73.50;100663.59;1863544;76;22602;-67
2021/03/29 11:55:19;;;;;;;32.83;19.57;;;;;;;8.00;73.76;100670.42;1830916;78;20934;-66
2021/03/29 11:57:47;;;;;;;50.92;27.05;;;;;;;8.01;74.01;100670.69;1836938;77;21189;-66
2021/03/29 12:00:23;;;;;;;40.83;24.25;;;;;;;8.02;74.10;100673.70;1833316;78;21023;-67
2021/03/29 12:05:38;;;;;;;44.15;26.52;;;;;;;7.98;74.11;100675.34;1755743;81;21146;-70